createdAt,value
2016-04-16T00:00:47.758Z,16.47
2016-04-16T00:01:47.730Z,16.56
2016-04-16T00:02:47.717Z,16.5
2016-04-16T00:03:47.705Z,16.57
2016-04-16T00:04:47.692Z,16.56
2016-04-16T00:05:47.694Z,16.49
2016-04-16T00:06:47.666Z,16.56
2016-04-16T00:07:47.652Z,16.57
2016-04-16T00:08:47.640Z,16.54
2016-04-16T00:09:47.611Z,16.57
2016-04-16T00:10:47.629Z,16.6
2016-04-16T00:11:47.601Z,16.71
2016-04-16T00:12:47.587Z,16.66
2016-04-16T00:13:47.559Z,16.64
2016-04-16T00:14:47.562Z,16.71
2016-04-16T00:15:47.534Z,16.76
2016-04-16T00:16:47.521Z,16.68
2016-04-16T00:17:47.508Z,16.69
2016-04-16T00:18:47.495Z,16.68
2016-04-16T00:19:47.482Z,16.69
2016-04-16T00:20:47.469Z,16.76
2016-04-16T00:21:47.456Z,16.78
2016-04-16T00:22:47.443Z,16.72
2016-04-16T00:23:47.431Z,16.74
2016-04-16T00:24:47.418Z,16.81
2016-04-16T00:25:47.248Z,16.83
2016-04-16T00:26:47.376Z,16.81
2016-04-16T00:27:47.378Z,16.74
2016-04-16T00:28:47.350Z,16.76
2016-04-16T00:29:47.337Z,16.71
2016-04-16T00:30:47.324Z,16.83
2016-04-16T00:31:47.311Z,16.83
2016-04-16T00:32:47.297Z,16.89
2016-04-16T00:33:47.285Z,16.81
2016-04-16T00:34:47.272Z,16.83
2016-04-16T00:35:47.260Z,16.83
2016-04-16T00:36:47.247Z,16.83
2016-04-16T00:37:47.233Z,16.86
2016-04-16T00:38:47.221Z,16.84
2016-04-16T00:39:47.207Z,16.83
2016-04-16T00:40:47.210Z,16.9
2016-04-16T00:41:47.182Z,16.84
2016-04-16T00:42:47.168Z,16.78
2016-04-16T00:43:47.156Z,16.84
2016-04-16T00:44:47.142Z,16.83
2016-04-16T00:45:47.129Z,16.87
2016-04-16T00:46:47.101Z,16.89
2016-04-16T00:47:47.104Z,16.81
2016-04-16T00:48:47.076Z,16.87
2016-04-16T00:49:47.063Z,16.86
2016-04-16T00:50:47.050Z,17.09
2016-04-16T00:51:47.037Z,17.04
2016-04-16T00:52:47.023Z,17.02
2016-04-16T00:53:47.012Z,16.76
2016-04-16T00:54:46.998Z,16.91
2016-04-16T00:55:46.970Z,17.01
2016-04-16T00:56:46.973Z,17.08
2016-04-16T00:57:46.959Z,16.91
2016-04-16T00:58:46.931Z,16.9
2016-04-16T00:59:46.933Z,16.91
2016-04-16T01:00:46.920Z,16.84
2016-04-16T01:01:46.907Z,16.9
2016-04-16T01:02:46.894Z,16.9
2016-04-16T01:03:46.866Z,17.08
2016-04-16T01:04:46.869Z,16.91
2016-04-16T01:05:46.841Z,16.87
2016-04-16T01:06:46.827Z,16.86
2016-04-16T01:07:46.814Z,16.58
2016-04-16T01:08:46.816Z,16.42
2016-04-16T01:09:46.788Z,16.41
2016-04-16T01:10:46.791Z,16.42
2016-04-16T01:11:46.762Z,16.42
2016-04-16T01:12:46.749Z,16.47
2016-04-16T01:13:46.720Z,16.38
2016-04-16T01:14:46.724Z,16.42
2016-04-16T01:15:46.710Z,16.43
2016-04-16T01:16:46.713Z,16.43
2016-04-16T01:17:46.684Z,16.42
2016-04-16T01:18:46.671Z,16.46
2016-04-16T01:19:46.659Z,16.41
2016-04-16T01:20:46.645Z,16.49
2016-04-16T01:21:46.618Z,16.43
2016-04-16T01:22:46.448Z,16.5
2016-04-16T01:23:46.592Z,16.42
2016-04-16T01:24:46.578Z,16.57
2016-04-16T01:25:46.565Z,16.56
2016-04-16T01:26:46.552Z,16.6
2016-04-16T01:27:46.539Z,16.47
2016-04-16T01:28:46.511Z,16.56
2016-04-16T01:29:46.514Z,16.49
2016-04-16T01:30:46.485Z,16.53
2016-04-16T01:31:46.472Z,16.54
2016-04-16T01:32:46.459Z,16.51
2016-04-16T01:33:46.446Z,16.42
2016-04-16T01:34:46.433Z,16.41
2016-04-16T01:35:46.436Z,16.43
2016-04-16T01:36:46.407Z,16.42
2016-04-16T01:37:46.410Z,16.5
2016-04-16T01:38:46.382Z,16.47
2016-04-16T01:39:46.368Z,16.42
2016-04-16T01:40:46.355Z,16.29
2016-04-16T01:41:46.343Z,16.42
2016-04-16T01:42:46.345Z,16.36
2016-04-16T01:43:46.301Z,16.39
2016-04-16T01:44:46.304Z,16.31
2016-04-16T01:45:46.276Z,16.36
2016-04-16T01:46:46.263Z,16.31
2016-04-16T01:47:46.250Z,16.28
2016-04-16T01:48:46.237Z,16.36
2016-04-16T01:49:46.209Z,16.35
2016-04-16T01:50:46.211Z,16.31
2016-04-16T01:51:46.198Z,16.38
2016-04-16T01:52:46.184Z,16.35
2016-04-16T01:53:46.172Z,16.41
2016-04-16T01:54:46.159Z,16.43
2016-04-16T01:55:46.131Z,16.41
2016-04-16T01:56:46.118Z,16.42
2016-04-16T01:57:46.105Z,16.41
2016-04-16T01:58:46.092Z,16.47
2016-04-16T01:59:46.063Z,16.38
2016-04-16T02:00:46.066Z,16.35
2016-04-16T02:01:46.052Z,16.42
2016-04-16T02:02:46.028Z,16.42
2016-04-16T02:03:46.015Z,16.43
2016-04-16T02:04:46.002Z,16.39
2016-04-16T02:05:45.989Z,16.39
2016-04-16T02:06:45.976Z,16.38
2016-04-16T02:07:45.964Z,16.38
2016-04-16T02:08:45.950Z,16.42
2016-04-16T02:09:45.937Z,16.35
2016-04-16T02:10:45.925Z,16.49
2016-04-16T02:11:45.897Z,16.42
2016-04-16T02:12:45.743Z,16.38
2016-04-16T02:13:45.886Z,16.39
2016-04-16T02:14:45.858Z,16.43
2016-04-16T02:15:45.844Z,16.38
2016-04-16T02:16:45.831Z,16.42
2016-04-16T02:17:45.818Z,16.42
2016-04-16T02:18:45.805Z,16.41
2016-04-16T02:19:45.793Z,16.42
2016-04-16T02:20:45.780Z,16.35
2016-04-16T02:21:45.759Z,16.35
2016-04-16T02:22:45.757Z,16.46
2016-04-16T02:23:45.727Z,16.35
2016-04-16T02:24:45.715Z,16.42
2016-04-16T02:25:45.717Z,16.47
2016-04-16T02:26:45.704Z,16.43
2016-04-16T02:27:45.676Z,16.36
2016-04-16T02:28:45.662Z,16.5
2016-04-16T02:29:45.666Z,16.43
2016-04-16T02:30:45.637Z,16.42
2016-04-16T02:31:45.609Z,16.43
2016-04-16T02:32:45.595Z,16.41
2016-04-16T02:33:45.598Z,16.42
2016-04-16T02:34:45.569Z,16.36
2016-04-16T02:35:45.681Z,16.39
2016-04-16T02:36:45.544Z,16.41
2016-04-16T02:37:45.531Z,16.39
2016-04-16T02:38:45.518Z,16.49
2016-04-16T02:39:45.505Z,16.38
2016-04-16T02:40:45.492Z,16.38
2016-04-16T02:41:45.478Z,16.39
2016-04-16T02:42:45.466Z,16.33
2016-04-16T02:43:45.437Z,16.51
2016-04-16T02:44:45.465Z,16.35
2016-04-16T02:45:45.495Z,16.43
2016-04-16T02:46:45.525Z,16.47
2016-04-16T02:47:45.555Z,16.41
2016-04-16T02:48:45.584Z,16.42
2016-04-16T02:49:45.588Z,16.51
2016-04-16T02:50:45.496Z,16.51
2016-04-16T02:51:45.593Z,16.56
2016-04-16T02:52:45.579Z,16.47
2016-04-16T02:53:45.583Z,16.54
2016-04-16T02:54:45.591Z,16.5
2016-04-16T02:55:45.411Z,16.41
2016-04-16T02:56:45.561Z,16.43
2016-04-16T02:57:45.553Z,16.51
2016-04-16T02:58:45.561Z,16.47
2016-04-16T02:59:45.535Z,16.53
2016-04-16T03:00:45.524Z,16.42
2016-04-16T03:01:45.513Z,16.47
2016-04-16T03:02:45.503Z,16.46
2016-04-16T03:03:45.476Z,16.41
2016-04-16T03:04:45.479Z,16.5
2016-04-16T03:05:45.498Z,16.56
2016-04-16T03:06:45.283Z,16.46
2016-04-16T03:07:45.443Z,16.56
2016-04-16T03:08:45.415Z,16.51
2016-04-16T03:09:45.402Z,16.49
2016-04-16T03:10:45.389Z,16.49
2016-04-16T03:11:45.222Z,16.43
2016-04-16T03:12:45.365Z,16.5
2016-04-16T03:13:45.353Z,16.35
2016-04-16T03:14:45.339Z,16.41
2016-04-16T03:15:45.311Z,16.42
2016-04-16T03:16:45.314Z,16.42
2016-04-16T03:17:45.284Z,16.54
2016-04-16T03:18:45.272Z,16.46
2016-04-16T03:19:45.274Z,16.42
2016-04-16T03:20:45.106Z,16.42
2016-04-16T03:21:45.233Z,16.38
2016-04-16T03:22:45.220Z,16.49
2016-04-16T03:23:45.207Z,16.38
2016-04-16T03:24:45.194Z,16.5
2016-04-16T03:25:45.180Z,16.57
2016-04-16T03:26:45.152Z,16.51
2016-04-16T03:27:45.155Z,16.39
2016-04-16T03:28:45.143Z,16.56
2016-04-16T03:29:45.114Z,16.54
2016-04-16T03:30:45.116Z,16.46
2016-04-16T03:31:45.104Z,16.51
2016-04-16T03:32:45.091Z,16.49
2016-04-16T03:33:45.062Z,16.47
2016-04-16T03:34:45.049Z,16.51
2016-04-16T03:35:45.114Z,16.43
2016-04-16T03:36:45.039Z,16.49
2016-04-16T03:37:44.995Z,16.53
2016-04-16T03:38:44.982Z,16.58
2016-04-16T03:39:44.968Z,16.53
2016-04-16T03:40:44.956Z,16.54
2016-04-16T03:41:44.943Z,16.53
2016-04-16T03:42:44.930Z,16.54
2016-04-16T03:43:44.918Z,16.56
2016-04-16T03:44:44.920Z,16.51
2016-04-16T03:45:44.892Z,16.5
2016-04-16T03:46:44.878Z,16.58
2016-04-16T03:47:44.865Z,16.58
2016-04-16T03:48:44.853Z,16.53
2016-04-16T03:49:44.839Z,16.56
2016-04-16T03:50:45.061Z,16.5
2016-04-16T03:51:44.813Z,16.51
2016-04-16T03:52:44.786Z,16.6
2016-04-16T03:53:44.788Z,16.5
2016-04-16T03:54:44.759Z,16.51
2016-04-16T03:55:44.746Z,16.57
2016-04-16T03:56:44.733Z,16.5
2016-04-16T03:57:44.721Z,16.53
2016-04-16T03:58:44.707Z,16.5
2016-04-16T03:59:44.694Z,16.5
2016-04-16T04:00:44.681Z,16.49
2016-04-16T04:01:44.652Z,16.43
2016-04-16T04:02:44.655Z,16.53
2016-04-16T04:03:44.627Z,16.51
2016-04-16T04:04:44.615Z,16.51
2016-04-16T04:05:44.632Z,16.5
2016-04-16T04:06:44.588Z,16.49
2016-04-16T04:07:44.575Z,16.49
2016-04-16T04:08:44.562Z,16.57
2016-04-16T04:09:44.549Z,16.54
2016-04-16T04:10:44.537Z,16.47
2016-04-16T04:11:44.524Z,16.49
2016-04-16T04:12:44.511Z,16.5
2016-04-16T04:13:44.498Z,16.53
2016-04-16T04:14:44.484Z,16.49
2016-04-16T04:15:44.487Z,16.61
2016-04-16T04:16:44.443Z,16.53
2016-04-16T04:17:44.430Z,16.53
2016-04-16T04:18:44.417Z,16.51
2016-04-16T04:19:44.420Z,16.43
2016-04-16T04:20:44.517Z,16.51
2016-04-16T04:21:44.379Z,16.46
2016-04-16T04:22:44.381Z,16.43
2016-04-16T04:23:44.353Z,16.42
2016-04-16T04:24:44.355Z,16.54
2016-04-16T04:25:44.311Z,16.53
2016-04-16T04:26:44.313Z,16.5
2016-04-16T04:27:44.285Z,16.53
2016-04-16T04:28:44.272Z,16.56
2016-04-16T04:29:44.275Z,16.49
2016-04-16T04:30:44.263Z,16.43
2016-04-16T04:31:44.233Z,16.31
2016-04-16T04:32:44.221Z,16.32
2016-04-16T04:33:44.207Z,16.32
2016-04-16T04:34:44.196Z,16.32
2016-04-16T04:35:44.229Z,16.28
2016-04-16T04:36:44.169Z,16.31
2016-04-16T04:37:44.157Z,16.24
2016-04-16T04:38:44.159Z,16.28
2016-04-16T04:39:44.115Z,16.16
2016-04-16T04:40:44.101Z,16.05
2016-04-16T04:41:44.089Z,16.01
2016-04-16T04:42:44.091Z,15.94
2016-04-16T04:43:44.063Z,-39.99
2016-04-16T04:44:44.050Z,16.12
2016-04-16T04:45:44.037Z,15.98
2016-04-16T04:46:44.024Z,15.95
2016-04-16T04:47:44.011Z,16.01
2016-04-16T04:48:43.983Z,16.05
2016-04-16T04:49:43.985Z,16.02
2016-04-16T04:50:43.956Z,16.08
2016-04-16T04:51:43.944Z,16.15
2016-04-16T04:52:43.947Z,15.98
2016-04-16T04:53:43.918Z,-39.99
2016-04-16T04:54:43.889Z,-39.99
2016-04-16T04:55:43.877Z,-39.99
2016-04-16T04:56:43.863Z,-39.99
2016-04-16T04:57:43.850Z,-39.99
2016-04-16T04:58:43.837Z,-39.99
2016-04-16T04:59:43.825Z,-39.99
2016-04-16T05:00:43.811Z,-39.99
2016-04-16T05:01:43.799Z,16.01
2016-04-16T05:02:43.786Z,16.02
2016-04-16T05:03:43.788Z,15.98
2016-04-16T05:04:43.760Z,16.01
2016-04-16T05:05:43.746Z,16.1
2016-04-16T05:06:43.734Z,16.04
2016-04-16T05:07:43.721Z,16
2016-04-16T05:08:43.696Z,15.95
2016-04-16T05:09:43.667Z,15.79
2016-04-16T05:10:43.670Z,15.92
2016-04-16T05:11:43.656Z,15.86
2016-04-16T05:12:43.644Z,15.76
2016-04-16T05:13:43.631Z,15.47
2016-04-16T05:14:43.587Z,15.39
2016-04-16T05:15:43.590Z,15.03
2016-04-16T05:16:43.561Z,14.91
2016-04-16T05:17:43.563Z,14.84
2016-04-16T05:18:43.550Z,14.69
2016-04-16T05:19:43.522Z,14.58
2016-04-16T05:20:43.525Z,14.58
2016-04-16T05:21:43.496Z,14.7
2016-04-16T05:22:43.484Z,14.62
2016-04-16T05:23:43.470Z,14.51
2016-04-16T05:24:43.458Z,14.62
2016-04-16T05:25:43.445Z,14.59
2016-04-16T05:26:43.416Z,14.66
2016-04-16T05:27:43.402Z,14.65
2016-04-16T05:28:43.406Z,14.58
2016-04-16T05:29:43.377Z,14.6
2016-04-16T05:30:43.364Z,14.97
2016-04-16T05:31:43.352Z,15.02
2016-04-16T05:32:43.355Z,15.06
2016-04-16T05:33:43.153Z,15.07
2016-04-16T05:34:43.296Z,14.97
2016-04-16T05:35:43.283Z,15.07
2016-04-16T05:36:43.271Z,14.81
2016-04-16T05:37:43.258Z,14.72
2016-04-16T05:38:43.245Z,14.84
2016-04-16T05:39:43.232Z,14.79
2016-04-16T05:40:43.204Z,14.84
2016-04-16T05:41:43.191Z,14.84
2016-04-16T05:42:43.177Z,14.72
2016-04-16T05:43:43.149Z,14.79
2016-04-16T05:44:43.151Z,14.81
2016-04-16T05:45:43.139Z,14.68
2016-04-16T05:46:43.126Z,15.14
2016-04-16T05:47:43.112Z,15.19
2016-04-16T05:48:43.085Z,15.37
2016-04-16T05:49:43.071Z,15.37
2016-04-16T05:50:43.074Z,15.36
2016-04-16T05:51:43.045Z,15.44
2016-04-16T05:52:43.033Z,15.42
2016-04-16T05:53:43.020Z,15.35
2016-04-16T05:54:43.022Z,15.46
2016-04-16T05:55:42.978Z,15.42
2016-04-16T05:56:42.965Z,15.4
2016-04-16T05:57:42.952Z,15.39
2016-04-16T05:58:42.939Z,15.51
2016-04-16T05:59:42.926Z,15.51
2016-04-16T06:00:42.914Z,15.51
2016-04-16T06:01:42.885Z,15.57
2016-04-16T06:02:42.872Z,15.54
2016-04-16T06:03:42.858Z,15.49
2016-04-16T06:04:42.846Z,15.46
2016-04-16T06:05:42.818Z,15.59
2016-04-16T06:06:42.820Z,15.7
2016-04-16T06:07:42.791Z,15.72
2016-04-16T06:08:42.779Z,15.8
2016-04-16T06:09:42.765Z,15.79
2016-04-16T06:10:42.752Z,15.92
2016-04-16T06:11:42.740Z,15.9
2016-04-16T06:12:42.727Z,15.82
2016-04-16T06:13:42.699Z,15.83
2016-04-16T06:14:42.685Z,15.77
2016-04-16T06:15:42.688Z,15.67
2016-04-16T06:16:42.676Z,15.58
2016-04-16T06:17:42.647Z,15.49
2016-04-16T06:18:42.634Z,15.58
2016-04-16T06:19:42.621Z,15.55
2016-04-16T06:20:42.608Z,15.47
2016-04-16T06:21:42.579Z,15.54
2016-04-16T06:22:42.581Z,15.51
2016-04-16T06:23:42.554Z,15.58
2016-04-16T06:24:42.540Z,15.58
2016-04-16T06:25:42.528Z,15.57
2016-04-16T06:26:42.515Z,15.52
2016-04-16T06:27:42.502Z,15.62
2016-04-16T06:28:42.472Z,15.68
2016-04-16T06:29:42.476Z,15.7
2016-04-16T06:30:42.447Z,15.65
2016-04-16T06:31:42.434Z,15.62
2016-04-16T06:32:42.421Z,15.68
2016-04-16T06:33:42.408Z,15.72
2016-04-16T06:34:42.380Z,15.61
2016-04-16T06:35:42.398Z,15.68
2016-04-16T06:36:42.355Z,15.61
2016-04-16T06:37:42.341Z,15.7
2016-04-16T06:38:42.344Z,15.76
2016-04-16T06:39:42.315Z,15.72
2016-04-16T06:40:42.318Z,15.67
2016-04-16T06:41:42.305Z,15.67
2016-04-16T06:42:42.277Z,15.72
2016-04-16T06:43:42.264Z,15.72
2016-04-16T06:44:42.251Z,15.67
2016-04-16T06:45:42.222Z,15.59
2016-04-16T06:46:42.209Z,15.7
2016-04-16T06:47:42.196Z,15.67
2016-04-16T06:48:42.027Z,15.68
2016-04-16T06:49:42.170Z,15.72
2016-04-16T06:50:42.157Z,15.68
2016-04-16T06:51:42.145Z,15.62
2016-04-16T06:52:42.116Z,15.65
2016-04-16T06:53:42.103Z,15.7
2016-04-16T06:54:42.106Z,15.64
2016-04-16T06:55:42.078Z,15.7
2016-04-16T06:56:42.064Z,15.77
2016-04-16T06:57:42.051Z,15.73
2016-04-16T06:58:42.039Z,15.68
2016-04-16T06:59:42.009Z,15.67
2016-04-16T07:00:42.012Z,15.82
2016-04-16T07:01:41.984Z,15.58
2016-04-16T07:02:41.986Z,15.65
2016-04-16T07:03:41.958Z,15.77
2016-04-16T07:04:41.945Z,15.67
2016-04-16T07:05:41.932Z,15.72
2016-04-16T07:06:41.919Z,15.68
2016-04-16T07:07:41.906Z,15.65
2016-04-16T07:08:41.908Z,15.82
2016-04-16T07:09:41.880Z,15.83
2016-04-16T07:10:41.867Z,15.9
2016-04-16T07:11:41.839Z,15.88
2016-04-16T07:12:41.827Z,15.91
2016-04-16T07:13:41.812Z,15.77
2016-04-16T07:14:41.800Z,15.8
2016-04-16T07:15:41.787Z,15.97
2016-04-16T07:16:41.774Z,16.05
2016-04-16T07:17:41.762Z,16.09
2016-04-16T07:18:41.748Z,16
2016-04-16T07:19:41.720Z,16.04
2016-04-16T07:20:41.706Z,16.01
2016-04-16T07:21:41.709Z,15.98
2016-04-16T07:22:41.696Z,16
2016-04-16T07:23:41.667Z,15.91
2016-04-16T07:24:41.655Z,16
2016-04-16T07:25:41.642Z,15.97
2016-04-16T07:26:41.629Z,16.05
2016-04-16T07:27:41.616Z,16.16
2016-04-16T07:28:41.619Z,16.15
2016-04-16T07:29:41.590Z,16.15
2016-04-16T07:30:41.578Z,16.12
2016-04-16T07:31:41.550Z,15.95
2016-04-16T07:32:41.552Z,16.01
2016-04-16T07:33:41.523Z,15.97
2016-04-16T07:34:41.510Z,15.94
2016-04-16T07:35:41.513Z,16.02
2016-04-16T07:36:41.484Z,15.91
2016-04-16T07:37:41.471Z,15.9
2016-04-16T07:38:41.458Z,15.9
2016-04-16T07:39:41.445Z,15.97
2016-04-16T07:40:41.432Z,16.05
2016-04-16T07:41:41.405Z,16.05
2016-04-16T07:42:41.390Z,16.13
2016-04-16T07:43:41.377Z,16.08
2016-04-16T07:44:41.365Z,16.08
2016-04-16T07:45:41.337Z,15.97
2016-04-16T07:46:41.340Z,16.09
2016-04-16T07:47:41.343Z,16.01
2016-04-16T07:48:41.313Z,16.04
2016-04-16T07:49:41.301Z,15.95
2016-04-16T07:50:41.287Z,16.1
2016-04-16T07:51:41.274Z,15.98
2016-04-16T07:52:41.262Z,15.95
2016-04-16T07:53:41.249Z,15.94
2016-04-16T07:54:41.220Z,16.02
2016-04-16T07:55:41.207Z,16.08
2016-04-16T07:56:41.195Z,16.04
2016-04-16T07:57:41.182Z,16.12
2016-04-16T07:58:41.167Z,16.31
2016-04-16T07:59:41.139Z,16.29
2016-04-16T08:00:41.143Z,16.28
2016-04-16T08:01:41.130Z,16.46
2016-04-16T08:02:41.100Z,16.36
2016-04-16T08:03:41.103Z,16.35
2016-04-16T08:04:41.075Z,16.33
2016-04-16T08:05:41.078Z,16.32
2016-04-16T08:06:41.049Z,16.32
2016-04-16T08:07:41.036Z,16.43
2016-04-16T08:08:41.024Z,16.43
2016-04-16T08:09:41.011Z,16.54
2016-04-16T08:10:40.997Z,16.6
2016-04-16T08:11:40.969Z,16.58
2016-04-16T08:12:40.971Z,16.56
2016-04-16T08:13:40.958Z,16.57
2016-04-16T08:14:40.946Z,16.51
2016-04-16T08:15:40.917Z,16.57
2016-04-16T08:16:40.905Z,16.51
2016-04-16T08:17:40.896Z,16.69
2016-04-16T08:18:40.884Z,16.71
2016-04-16T08:19:40.871Z,16.78
2016-04-16T08:20:40.842Z,16.84
2016-04-16T08:21:40.937Z,16.89
2016-04-16T08:22:40.816Z,16.91
2016-04-16T08:23:40.818Z,16.86
2016-04-16T08:24:40.806Z,16.78
2016-04-16T08:25:40.777Z,16.94
2016-04-16T08:26:40.780Z,16.78
2016-04-16T08:27:40.751Z,16.75
2016-04-16T08:28:40.738Z,16.78
2016-04-16T08:29:40.725Z,16.91
2016-04-16T08:30:40.712Z,16.89
2016-04-16T08:31:40.700Z,16.9
2016-04-16T08:32:40.686Z,16.78
2016-04-16T08:33:40.674Z,16.75
2016-04-16T08:34:40.661Z,16.84
2016-04-16T08:35:40.647Z,16.81
2016-04-16T08:36:40.978Z,16.84
2016-04-16T08:37:40.622Z,16.74
2016-04-16T08:38:40.593Z,16.76
2016-04-16T08:39:40.580Z,16.75
2016-04-16T08:40:40.568Z,16.68
2016-04-16T08:41:40.570Z,16.84
2016-04-16T08:42:40.541Z,17.08
2016-04-16T08:43:40.529Z,17.12
2016-04-16T08:44:40.516Z,17.2
2016-04-16T08:45:40.503Z,17.31
2016-04-16T08:46:40.505Z,17.49
2016-04-16T08:47:40.477Z,17.7
2016-04-16T08:48:40.464Z,17.51
2016-04-16T08:49:40.451Z,17.48
2016-04-16T08:50:40.438Z,17.57
2016-04-16T08:51:40.551Z,17.26
2016-04-16T08:52:40.412Z,17.51
2016-04-16T08:53:40.243Z,17.41
2016-04-16T08:54:40.387Z,17.15
2016-04-16T08:55:40.436Z,17.15
2016-04-16T08:56:40.345Z,17.15
2016-04-16T08:57:40.331Z,17.14
2016-04-16T08:58:40.334Z,17.14
2016-04-16T08:59:40.321Z,17.11
2016-04-16T09:00:40.309Z,17.16
2016-04-16T09:01:40.295Z,17.15
2016-04-16T09:02:40.283Z,17.12
2016-04-16T09:03:40.270Z,17.15
2016-04-16T09:04:40.257Z,17.14
2016-04-16T09:05:40.260Z,17.02
2016-04-16T09:06:40.450Z,17.16
2016-04-16T09:07:40.219Z,17.16
2016-04-16T09:08:40.205Z,17.12
2016-04-16T09:09:40.192Z,17.26
2016-04-16T09:10:40.179Z,17.36
2016-04-16T09:11:40.166Z,17.45
2016-04-16T09:12:40.154Z,17.54
2016-04-16T09:13:40.140Z,17.65
2016-04-16T09:14:40.127Z,17.76
2016-04-16T09:15:40.115Z,17.51
2016-04-16T09:16:40.102Z,17.56
2016-04-16T09:17:40.089Z,17.65
2016-04-16T09:18:40.075Z,17.56
2016-04-16T09:19:40.062Z,17.82
2016-04-16T09:20:40.034Z,17.85
2016-04-16T09:21:40.365Z,17.86
2016-04-16T09:22:40.023Z,18.01
2016-04-16T09:23:39.996Z,18.16
2016-04-16T09:24:39.998Z,18.03
2016-04-16T09:25:39.985Z,18.05
2016-04-16T09:26:39.972Z,17.63
2016-04-16T09:27:39.959Z,17.42
2016-04-16T09:28:39.931Z,17.33
2016-04-16T09:29:39.934Z,17.42
2016-04-16T09:30:39.921Z,17.41
2016-04-16T09:31:39.892Z,17.39
2016-04-16T09:32:39.895Z,17.59
2016-04-16T09:33:39.881Z,17.64
2016-04-16T09:34:39.869Z,17.71
2016-04-16T09:35:39.840Z,17.68
2016-04-16T09:36:39.952Z,17.7
2016-04-16T09:37:39.830Z,17.64
2016-04-16T09:38:39.817Z,17.78
2016-04-16T09:39:39.805Z,17.63
2016-04-16T09:40:39.775Z,17.86
2016-04-16T09:41:39.794Z,17.86
2016-04-16T09:42:39.749Z,17.86
2016-04-16T09:43:39.752Z,18.04
2016-04-16T09:44:39.723Z,17.97
2016-04-16T09:45:39.554Z,18.15
2016-04-16T09:46:39.698Z,18.08
2016-04-16T09:47:39.701Z,18.25
2016-04-16T09:48:39.671Z,18.01
2016-04-16T09:49:39.659Z,18.15
2016-04-16T09:50:39.662Z,17.86
2016-04-16T09:51:39.680Z,17.79
2016-04-16T09:52:39.637Z,17.7
2016-04-16T09:53:39.639Z,17.33
2016-04-16T09:54:39.595Z,17.45
2016-04-16T09:55:39.597Z,17.49
2016-04-16T09:56:39.584Z,17.52
2016-04-16T09:57:39.571Z,17.51
2016-04-16T09:58:39.558Z,17.82
2016-04-16T09:59:39.545Z,17.9
2016-04-16T10:00:39.532Z,18.01
2016-04-16T10:01:39.520Z,17.9
2016-04-16T10:02:39.507Z,18.07
2016-04-16T10:03:39.509Z,18.11
2016-04-16T10:04:39.480Z,17.89
2016-04-16T10:05:39.452Z,17.92
2016-04-16T10:06:39.470Z,18.11
2016-04-16T10:07:39.442Z,18.04
2016-04-16T10:08:39.430Z,18.19
2016-04-16T10:09:39.416Z,18.07
2016-04-16T10:10:39.403Z,18.05
2016-04-16T10:11:39.391Z,18
2016-04-16T10:12:39.377Z,17.85
2016-04-16T10:13:39.364Z,18.01
2016-04-16T10:14:39.352Z,18.03
2016-04-16T10:15:39.339Z,17.89
2016-04-16T10:16:39.326Z,17.86
2016-04-16T10:17:39.313Z,17.86
2016-04-16T10:18:39.299Z,17.87
2016-04-16T10:19:39.287Z,17.9
2016-04-16T10:20:39.273Z,17.8
2016-04-16T10:21:39.260Z,18.11
2016-04-16T10:22:39.248Z,18.23
2016-04-16T10:23:39.251Z,18.34
2016-04-16T10:24:39.223Z,18.44
2016-04-16T10:25:39.209Z,18.62
2016-04-16T10:26:39.196Z,18.59
2016-04-16T10:27:39.183Z,18.66
2016-04-16T10:28:39.170Z,18.75
2016-04-16T10:29:39.156Z,18.99
2016-04-16T10:30:39.144Z,18.89
2016-04-16T10:31:39.131Z,18.83
2016-04-16T10:32:39.150Z,19.07
2016-04-16T10:33:39.105Z,19.27
2016-04-16T10:34:39.108Z,18.96
2016-04-16T10:35:39.095Z,19.04
2016-04-16T10:36:39.083Z,19.24
2016-04-16T10:37:39.054Z,19.39
2016-04-16T10:38:39.056Z,19.07
2016-04-16T10:39:39.044Z,19.24
2016-04-16T10:40:39.030Z,19.37
2016-04-16T10:41:39.018Z,19.54
2016-04-16T10:42:39.005Z,19.62
2016-04-16T10:43:39.008Z,19.79
2016-04-16T10:44:38.979Z,19.47
2016-04-16T10:45:38.966Z,19.34
2016-04-16T10:46:38.969Z,19.3
2016-04-16T10:47:38.940Z,19.36
2016-04-16T10:48:38.943Z,19.19
2016-04-16T10:49:38.929Z,19.76
2016-04-16T10:50:38.917Z,20.56
2016-04-16T10:51:38.903Z,20.36
2016-04-16T10:52:38.890Z,19.73
2016-04-16T10:53:38.893Z,19.85
2016-04-16T10:54:38.865Z,20.65
2016-04-16T10:55:38.867Z,21.2
2016-04-16T10:56:38.870Z,21.6
2016-04-16T10:57:38.842Z,22.26
2016-04-16T10:58:38.829Z,21.69
2016-04-16T10:59:38.832Z,22.07
2016-04-16T11:00:38.804Z,21.95
2016-04-16T11:01:38.806Z,21.66
2016-04-16T11:02:38.793Z,20.36
2016-04-16T11:03:38.780Z,20.43
2016-04-16T11:04:38.783Z,20.52
2016-04-16T11:05:38.769Z,21.39
2016-04-16T11:06:38.756Z,21.98
2016-04-16T11:07:38.759Z,22.84
2016-04-16T11:08:38.747Z,23.62
2016-04-16T11:09:38.734Z,23.63
2016-04-16T11:10:38.752Z,23.32
2016-04-16T11:11:38.724Z,23.39
2016-04-16T11:12:38.726Z,23.88
2016-04-16T11:13:38.713Z,23.46
2016-04-16T11:14:38.715Z,23.24
2016-04-16T11:15:38.702Z,23.65
2016-04-16T11:16:38.705Z,24.6
2016-04-16T11:17:38.693Z,23.78
2016-04-16T11:18:38.695Z,23.4
2016-04-16T11:19:38.682Z,23.88
2016-04-16T11:20:38.685Z,24.45
2016-04-16T11:21:38.829Z,24.45
2016-04-16T11:22:38.706Z,24.36
2016-04-16T11:23:38.662Z,24.95
2016-04-16T11:24:38.665Z,25.29
2016-04-16T11:25:38.667Z,24.68
2016-04-16T11:26:38.670Z,25.72
2016-04-16T11:27:38.657Z,26.43
2016-04-16T11:28:38.675Z,25.28
2016-04-16T11:29:38.662Z,24.16
2016-04-16T11:30:38.649Z,24.2
2016-04-16T11:31:38.653Z,23.34
2016-04-16T11:32:38.655Z,23.41
2016-04-16T11:33:38.642Z,23.4
2016-04-16T11:34:38.645Z,23.51
2016-04-16T11:35:38.647Z,24.18
2016-04-16T11:36:38.650Z,24.58
2016-04-16T11:37:38.637Z,24.24
2016-04-16T11:38:38.639Z,23.37
2016-04-16T11:39:38.642Z,23.24
2016-04-16T11:40:38.645Z,22.63
2016-04-16T11:41:38.632Z,22.88
2016-04-16T11:42:38.635Z,24.45
2016-04-16T11:43:38.638Z,25.66
2016-04-16T11:44:38.624Z,27.21
2016-04-16T11:45:38.627Z,26.88
2016-04-16T11:46:38.630Z,25.29
2016-04-16T11:47:38.616Z,24.99
2016-04-16T11:48:38.619Z,24.53
2016-04-16T11:49:38.638Z,22.9
2016-04-16T11:50:38.668Z,22.11
2016-04-16T11:51:38.700Z,22.07
2016-04-16T11:52:38.731Z,21.72
2016-04-16T11:53:38.777Z,21.5
2016-04-16T11:54:38.809Z,21.48
2016-04-16T11:55:38.829Z,21.12
2016-04-16T11:56:38.831Z,21.67
2016-04-16T11:57:38.849Z,22.53
2016-04-16T11:58:38.868Z,22.99
2016-04-16T11:59:38.886Z,22.76
2016-04-16T12:00:38.878Z,22.53
2016-04-16T12:01:38.873Z,22.72
2016-04-16T12:02:38.881Z,21.55
2016-04-16T12:03:38.873Z,20.82
2016-04-16T12:04:38.882Z,21.15
2016-04-16T12:05:38.870Z,21.06
2016-04-16T12:06:38.875Z,21.64
2016-04-16T12:07:38.866Z,21.52
2016-04-16T12:08:38.854Z,21.4
2016-04-16T12:09:38.860Z,20.85
2016-04-16T12:10:38.863Z,21.15
2016-04-16T12:11:38.852Z,20.6
2016-04-16T12:12:38.839Z,20.65
2016-04-16T12:13:38.826Z,20.75
2016-04-16T12:14:38.830Z,20.87
2016-04-16T12:15:38.818Z,20.22
2016-04-16T12:16:38.805Z,20.26
2016-04-16T12:17:38.793Z,20.58
2016-04-16T12:18:38.795Z,20.39
2016-04-16T12:19:38.799Z,20.77
2016-04-16T12:20:38.786Z,21.76
2016-04-16T12:21:38.789Z,22.54
2016-04-16T12:22:38.760Z,22.51
2016-04-16T12:23:38.763Z,22.41
2016-04-16T12:24:38.750Z,22.91
2016-04-16T12:25:38.737Z,22.48
2016-04-16T12:26:38.739Z,22.14
2016-04-16T12:27:38.711Z,21.66
2016-04-16T12:28:38.714Z,21.67
2016-04-16T12:29:38.716Z,21.33
2016-04-16T12:30:38.703Z,21.29
2016-04-16T12:31:38.691Z,21.14
2016-04-16T12:32:38.694Z,20.69
2016-04-16T12:33:38.680Z,20.77
2016-04-16T12:34:38.667Z,21.14
2016-04-16T12:35:38.671Z,22.17
2016-04-16T12:36:38.657Z,24.03
2016-04-16T12:37:38.644Z,24.18
2016-04-16T12:38:38.647Z,24.88
2016-04-16T12:39:38.634Z,25.08
2016-04-16T12:40:38.621Z,25.22
2016-04-16T12:41:38.624Z,25.66
2016-04-16T12:42:38.626Z,24.3
2016-04-16T12:43:38.613Z,23.55
2016-04-16T12:44:38.601Z,24.1
2016-04-16T12:45:38.603Z,23.43
2016-04-16T12:46:38.606Z,23.65
2016-04-16T12:47:38.608Z,23.8
2016-04-16T12:48:38.596Z,23.54
2016-04-16T12:49:38.598Z,23.36
2016-04-16T12:50:38.570Z,22.99
2016-04-16T12:51:38.573Z,23.21
2016-04-16T12:52:38.622Z,22.47
2016-04-16T12:53:38.562Z,22.7
2016-04-16T12:54:38.564Z,22.88
2016-04-16T12:55:38.552Z,22.8